createdAt,value
2023-06-28T00:02:11.902Z,8.48
2023-06-28T00:04:38.827Z,7.72
2023-06-28T00:07:12.281Z,8.20
2023-06-28T00:09:45.297Z,7.97
2023-06-28T00:12:11.973Z,7.07
2023-06-28T00:14:41.710Z,13.77
2023-06-28T00:17:13.169Z,8.77
2023-06-28T00:19:49.016Z,5.97
2023-06-28T00:22:18.665Z,5.78
2023-06-28T00:24:49.855Z,6.82
2023-06-28T00:27:16.545Z,4.53
2023-06-28T00:29:43.212Z,7.22
2023-06-28T00:32:10.339Z,8.30
2023-06-28T00:34:40.876Z,5.07
2023-06-28T00:40:12.608Z,6.78
2023-06-28T00:42:43.623Z,5.40
2023-06-28T00:45:27.374Z,7.95
2023-06-28T00:51:02.831Z,6.75
2023-06-28T00:53:32.729Z,13.48
2023-06-28T00:56:08.120Z,7.60
2023-06-28T00:58:35.670Z,5.35
2023-06-28T01:01:02.835Z,15.20
2023-06-28T01:03:29.714Z,7.38
2023-06-28T01:06:00.417Z,6.93
2023-06-28T01:08:29.040Z,6.18
2023-06-28T01:10:56.754Z,6.80
2023-06-28T01:13:29.578Z,7.55
2023-06-28T01:15:56.595Z,6.68
2023-06-28T01:18:26.822Z,7.97
2023-06-28T01:21:02.795Z,9.02
2023-06-28T01:23:33.082Z,8.25
2023-06-28T01:26:14.663Z,9.30
2023-06-28T01:28:48.782Z,7.32
2023-06-28T01:31:21.564Z,6.70
2023-06-28T01:33:51.638Z,10.23
2023-06-28T01:36:31.236Z,11.88
2023-06-28T01:38:59.730Z,9.38
2023-06-28T01:41:33.242Z,7.13
2023-06-28T01:44:09.296Z,6.80
2023-06-28T01:46:36.538Z,6.82
2023-06-28T01:49:03.716Z,4.63
2023-06-28T01:51:49.593Z,5.85
2023-06-28T01:54:17.495Z,8.38
2023-06-28T01:56:46.183Z,9.95
2023-06-28T01:59:18.162Z,8.30
2023-06-28T02:01:48.148Z,8.45
2023-06-28T02:04:14.995Z,7.10
2023-06-28T02:06:42.180Z,11.50
2023-06-28T02:09:12.124Z,8.57
2023-06-28T02:11:38.824Z,6.50
2023-06-28T02:14:11.573Z,8.60
2023-06-28T02:16:42.763Z,7.30
2023-06-28T02:19:16.826Z,9.55
2023-06-28T02:21:52.235Z,6.95
2023-06-28T02:24:18.961Z,7.75
2023-06-28T02:26:45.749Z,10.13
2023-06-28T02:29:12.586Z,9.25
2023-06-28T02:31:39.526Z,10.98
2023-06-28T02:34:16.785Z,6.50
2023-06-28T02:36:43.451Z,7.75
2023-06-28T02:39:15.814Z,6.93
2023-06-28T02:41:42.597Z,10.85
2023-06-28T02:44:12.560Z,10.02
2023-06-28T02:46:41.883Z,6.80
2023-06-28T02:49:11.710Z,14.35
2023-06-28T02:51:38.636Z,7.70
2023-06-28T02:54:11.629Z,8.52
2023-06-28T02:56:38.357Z,9.32
2023-06-28T02:59:10.737Z,9.50
2023-06-28T03:01:47.996Z,9.13
2023-06-28T03:04:14.763Z,8.15
2023-06-28T03:06:42.833Z,7.60
2023-06-28T03:09:15.587Z,7.35
2023-06-28T03:11:42.312Z,8.85
2023-06-28T03:14:16.435Z,10.38
2023-06-28T03:16:43.218Z,7.53
2023-06-28T03:19:17.731Z,9.55
2023-06-28T03:21:57.964Z,10.35
2023-06-28T03:24:33.997Z,4.47
2023-06-28T03:27:01.277Z,4.88
2023-06-28T03:29:31.156Z,8.07
2023-06-28T03:31:57.938Z,9.38
2023-06-28T03:34:30.389Z,4.38
2023-06-28T03:37:04.498Z,9.15
2023-06-28T03:39:32.264Z,7.25
2023-06-28T03:41:58.970Z,9.10
2023-06-28T03:44:25.951Z,6.40
2023-06-28T03:46:58.243Z,4.43
2023-06-28T03:49:29.902Z,8.63
2023-06-28T03:51:56.671Z,8.18
2023-06-28T03:54:23.456Z,9.20
2023-06-28T03:56:50.789Z,8.98
2023-06-28T03:59:17.594Z,6.32
2023-06-28T04:01:48.574Z,4.78
2023-06-28T04:04:24.289Z,5.47
2023-06-28T04:06:51.307Z,5.22
2023-06-28T04:09:18.185Z,4.68
2023-06-28T04:11:45.253Z,7.10
2023-06-28T04:14:12.147Z,4.32
2023-06-28T04:16:41.879Z,6.82
2023-06-28T04:19:10.994Z,4.70
2023-06-28T04:22:02.559Z,7.30
2023-06-28T04:24:32.813Z,3.85
2023-06-28T04:27:01.924Z,4.68
2023-06-28T04:29:29.197Z,8.55
2023-06-28T04:32:10.962Z,7.55
2023-06-28T04:34:39.890Z,7.07
2023-06-28T04:39:52.224Z,6.50
2023-06-28T04:42:19.084Z,8.00
2023-06-28T04:44:56.133Z,5.82
2023-06-28T04:47:24.490Z,8.80
2023-06-28T04:49:51.272Z,8.57
2023-06-28T04:52:22.271Z,5.35
2023-06-28T04:54:54.962Z,7.10
2023-06-28T04:57:24.739Z,12.85
2023-06-28T04:59:51.487Z,5.75
2023-06-28T05:02:26.074Z,7.20
2023-06-28T05:05:00.257Z,8.63
2023-06-28T05:10:09.527Z,4.68
2023-06-28T05:12:36.844Z,5.20
2023-06-28T05:15:06.700Z,7.40
2023-06-28T05:17:33.817Z,3.58
2023-06-28T05:20:08.170Z,6.63
2023-06-28T05:23:13.898Z,4.47
2023-06-28T05:25:42.890Z,5.47
2023-06-28T05:28:13.258Z,5.82
2023-06-28T05:30:44.712Z,4.63
2023-06-28T05:33:12.468Z,5.32
2023-06-28T05:35:47.291Z,6.25
2023-06-28T05:38:14.008Z,4.80
2023-06-28T05:40:41.289Z,4.78
2023-06-28T05:43:08.310Z,5.55
2023-06-28T05:45:37.474Z,6.03
2023-06-28T05:48:07.225Z,5.80
2023-06-28T05:50:39.375Z,3.85
2023-06-28T05:53:07.472Z,4.65
2023-06-28T05:55:39.371Z,4.72
2023-06-28T05:58:09.195Z,5.32
2023-06-28T06:00:38.783Z,5.40
2023-06-28T06:03:08.830Z,6.78
2023-06-28T06:05:35.583Z,4.63
2023-06-28T06:08:02.294Z,5.95
2023-06-28T06:10:36.325Z,11.57
2023-06-28T06:13:03.154Z,8.75
2023-06-28T06:15:29.783Z,5.05
2023-06-28T06:17:56.659Z,6.22
2023-06-28T06:20:23.860Z,4.95
2023-06-28T06:23:02.608Z,5.20
2023-06-28T06:25:29.432Z,5.25
2023-06-28T06:28:06.505Z,7.95
2023-06-28T06:30:36.618Z,5.00
2023-06-28T06:33:08.130Z,7.35
2023-06-28T06:35:35.184Z,5.05
2023-06-28T06:38:01.863Z,5.60
2023-06-28T06:40:49.881Z,4.43
2023-06-28T06:43:24.045Z,5.72
2023-06-28T06:45:57.919Z,3.75
2023-06-28T06:48:25.054Z,6.25
2023-06-28T06:50:51.852Z,4.50
2023-06-28T06:56:02.073Z,5.57
2023-06-28T06:58:29.409Z,4.47
2023-06-28T07:01:01.024Z,6.80
2023-06-28T07:03:27.713Z,6.35
2023-06-28T07:06:00.778Z,8.13
2023-06-28T07:08:28.119Z,6.47
2023-06-28T07:11:01.064Z,3.78
2023-06-28T07:13:27.856Z,3.90
2023-06-28T07:16:00.776Z,5.63
2023-06-28T07:18:27.804Z,2.83
2023-06-28T07:21:01.137Z,3.30
2023-06-28T07:23:27.874Z,3.85
2023-06-28T07:25:59.818Z,3.08
2023-06-28T07:28:26.503Z,3.38
2023-06-28T07:31:13.093Z,3.75
2023-06-28T07:33:42.234Z,4.63
2023-06-28T07:36:09.095Z,5.18
2023-06-28T07:38:36.710Z,2.80
2023-06-28T07:41:05.248Z,4.57
2023-06-28T07:43:35.627Z,4.78
2023-06-28T07:46:10.271Z,3.95
2023-06-28T07:48:37.197Z,4.35
2023-06-28T07:51:09.499Z,3.40
2023-06-28T07:53:36.125Z,4.50
2023-06-28T07:56:09.403Z,4.10
2023-06-28T07:58:42.304Z,5.10
2023-06-28T08:01:18.503Z,1.87
2023-06-28T08:03:45.809Z,5.63
2023-06-28T08:06:12.653Z,5.40
2023-06-28T08:08:42.182Z,2.75
2023-06-28T08:11:16.377Z,3.03
2023-06-28T08:13:43.126Z,2.95
2023-06-28T08:16:12.205Z,4.40
2023-06-28T08:18:41.940Z,5.25
2023-06-28T08:21:08.680Z,3.50
2023-06-28T08:23:38.342Z,4.30
2023-06-28T08:26:08.061Z,4.55
2023-06-28T08:28:43.526Z,2.53
2023-06-28T08:31:20.964Z,4.55
2023-06-28T08:33:59.107Z,4.93
2023-06-28T08:36:30.338Z,5.03
2023-06-28T08:38:56.981Z,3.42
2023-06-28T08:41:30.103Z,3.35
2023-06-28T08:44:01.241Z,5.80
2023-06-28T08:46:32.550Z,2.05
2023-06-28T08:49:10.788Z,4.72
2023-06-28T08:52:00.068Z,4.18
2023-06-28T08:54:31.265Z,3.40
2023-06-28T08:57:12.411Z,2.88
2023-06-28T08:59:40.553Z,5.40
2023-06-28T09:02:10.669Z,2.53
2023-06-28T09:04:40.473Z,4.43
2023-06-28T09:07:10.998Z,6.03
2023-06-28T09:09:42.575Z,3.08
2023-06-28T09:12:11.270Z,3.10
2023-06-28T09:14:37.970Z,2.97
2023-06-28T09:17:10.525Z,6.07
2023-06-28T09:19:40.690Z,3.50
2023-06-28T09:22:21.378Z,3.55
2023-06-28T09:25:13.068Z,2.33
2023-06-28T09:27:43.296Z,2.03
2023-06-28T09:30:21.920Z,2.47
2023-06-28T09:32:55.381Z,1.83
2023-06-28T09:35:23.331Z,1.33
2023-06-28T09:38:10.401Z,4.43
2023-06-28T09:40:37.537Z,4.25
2023-06-28T09:43:17.300Z,2.15
2023-06-28T09:45:45.247Z,2.70
2023-06-28T09:48:12.151Z,2.50
2023-06-28T09:50:49.662Z,5.25
2023-06-28T09:53:20.560Z,3.55
2023-06-28T09:55:51.884Z,3.47
2023-06-28T09:58:22.087Z,2.80
2023-06-28T10:00:55.433Z,3.72
2023-06-28T10:03:29.474Z,2.88
2023-06-28T10:06:01.232Z,2.03
2023-06-28T10:08:36.393Z,2.55
2023-06-28T10:11:19.602Z,3.47
2023-06-28T10:13:50.839Z,3.53
2023-06-28T10:16:34.054Z,3.92
2023-06-28T10:19:01.603Z,7.05
2023-06-28T10:21:33.044Z,3.50
2023-06-28T10:24:07.711Z,2.17
2023-06-28T10:26:36.290Z,2.15
2023-06-28T10:29:08.579Z,2.67
2023-06-28T10:31:36.043Z,3.50
2023-06-28T10:34:06.931Z,1.20
2023-06-28T10:36:34.316Z,2.38
2023-06-28T10:39:01.133Z,6.72
2023-06-28T10:41:35.699Z,2.00
2023-06-28T10:44:09.482Z,2.35
2023-06-28T10:46:38.198Z,3.78
2023-06-28T10:49:14.409Z,3.75
2023-06-28T10:51:50.462Z,2.72
2023-06-28T10:54:17.178Z,2.33
2023-06-28T10:56:58.480Z,1.50
2023-06-28T10:59:27.784Z,1.67
2023-06-28T11:01:59.102Z,1.92
2023-06-28T11:04:27.354Z,2.70
2023-06-28T11:07:25.391Z,2.05
2023-06-28T11:10:45.247Z,2.45
2023-06-28T11:14:18.857Z,1.58
2023-06-28T11:16:51.270Z,2.95
2023-06-28T11:19:43.328Z,3.03
2023-06-28T11:22:14.344Z,1.10
2023-06-28T11:25:12.452Z,4.57
2023-06-28T11:27:42.150Z,2.67
2023-06-28T11:30:10.411Z,2.85
2023-06-28T11:32:38.268Z,3.20
2023-06-28T11:35:13.857Z,3.30
2023-06-28T11:37:42.472Z,1.55
2023-06-28T11:40:12.143Z,2.72
2023-06-28T11:42:46.664Z,1.70
2023-06-28T11:45:21.518Z,2.47
2023-06-28T11:47:49.486Z,2.08
2023-06-28T11:50:20.113Z,2.28
2023-06-28T11:52:51.743Z,3.75
2023-06-28T11:55:36.789Z,4.55
2023-06-28T11:58:03.467Z,1.98
2023-06-28T12:00:39.917Z,3.15
2023-06-28T12:03:15.537Z,1.73
2023-06-28T12:05:57.557Z,3.05
2023-06-28T12:08:24.497Z,1.70
2023-06-28T12:11:00.544Z,2.58
2023-06-28T12:13:28.845Z,2.80
2023-06-28T12:16:22.559Z,2.63
2023-06-28T12:19:10.815Z,1.27
2023-06-28T12:21:49.006Z,2.53
2023-06-28T12:24:29.364Z,4.63
2023-06-28T12:27:04.687Z,3.00
2023-06-28T12:29:38.867Z,3.83
2023-06-28T12:32:48.582Z,2.25
2023-06-28T12:35:27.902Z,2.17
2023-06-28T12:38:03.149Z,3.33
2023-06-28T12:40:41.550Z,3.15
2023-06-28T12:43:19.057Z,4.57
2023-06-28T12:46:06.674Z,1.90
2023-06-28T12:48:39.024Z,4.07
2023-06-28T12:51:11.429Z,2.38
2023-06-28T12:53:41.122Z,3.35
2023-06-28T12:56:17.733Z,3.08
2023-06-28T12:58:47.314Z,2.10
2023-06-28T13:01:14.266Z,2.88
2023-06-28T13:03:43.900Z,7.22
2023-06-28T13:06:18.126Z,2.95
2023-06-28T13:08:44.813Z,3.90
2023-06-28T13:11:13.419Z,2.25
2023-06-28T13:13:40.410Z,2.63
2023-06-28T13:16:13.319Z,4.93
2023-06-28T13:18:46.105Z,2.70
2023-06-28T13:21:12.832Z,2.50
2023-06-28T13:23:51.804Z,5.68
2023-06-28T13:26:22.606Z,2.63
2023-06-28T13:28:55.945Z,3.42
2023-06-28T13:31:25.223Z,2.42
2023-06-28T13:33:52.115Z,3.08
2023-06-28T13:36:22.424Z,4.68
2023-06-28T13:38:51.885Z,3.75
2023-06-28T13:41:18.574Z,4.38
2023-06-28T13:43:45.334Z,1.73
2023-06-28T13:46:12.195Z,4.07
2023-06-28T13:48:44.886Z,3.05
2023-06-28T13:51:14.431Z,2.30
2023-06-28T13:53:43.953Z,2.45
2023-06-28T13:56:10.722Z,2.28
2023-06-28T13:58:43.414Z,4.30
2023-06-28T14:01:18.431Z,2.70
2023-06-28T14:03:47.052Z,3.15
2023-06-28T14:06:13.980Z,1.73
2023-06-28T14:08:46.995Z,2.08
2023-06-28T14:11:17.543Z,4.32
2023-06-28T14:13:55.496Z,5.40
2023-06-28T14:16:22.183Z,4.55
2023-06-28T14:18:51.070Z,5.97
2023-06-28T14:21:20.614Z,4.40
2023-06-28T14:23:47.258Z,3.65
2023-06-28T14:26:19.719Z,5.28
2023-06-28T14:28:46.579Z,3.45
2023-06-28T14:31:16.213Z,5.50
2023-06-28T14:33:49.238Z,3.88
2023-06-28T14:36:15.916Z,3.80
2023-06-28T14:39:07.255Z,2.97
2023-06-28T14:41:33.988Z,2.22
2023-06-28T14:44:06.877Z,3.97
2023-06-28T14:46:33.739Z,2.87
2023-06-28T14:49:08.886Z,3.67
2023-06-28T14:51:35.766Z,2.28
2023-06-28T14:54:09.909Z,1.35
2023-06-28T14:56:36.679Z,2.28
2023-06-28T14:59:11.495Z,2.10
2023-06-28T15:01:38.289Z,1.65
2023-06-28T15:04:08.154Z,2.00
2023-06-28T15:06:48.954Z,4.53
2023-06-28T15:09:18.583Z,3.95
2023-06-28T15:11:45.720Z,5.50
2023-06-28T15:14:17.872Z,6.35
2023-06-28T15:16:48.732Z,8.43
2023-06-28T15:19:15.734Z,6.75
2023-06-28T15:21:57.825Z,2.50
2023-06-28T15:24:27.052Z,3.58
2023-06-28T15:26:59.392Z,4.40
2023-06-28T15:29:28.172Z,1.98
2023-06-28T15:31:59.012Z,2.10
2023-06-28T15:34:28.599Z,3.72
2023-06-28T15:37:03.096Z,2.58
2023-06-28T15:39:29.775Z,5.20
2023-06-28T15:41:56.567Z,2.42
2023-06-28T15:44:23.335Z,2.20
2023-06-28T15:46:51.184Z,4.65
2023-06-28T15:49:21.012Z,4.13
2023-06-28T15:51:50.824Z,3.70
2023-06-28T15:54:23.311Z,3.83
2023-06-28T15:56:50.260Z,4.07
2023-06-28T15:59:17.023Z,2.00
2023-06-28T16:01:46.928Z,2.83
2023-06-28T16:04:19.649Z,2.92
2023-06-28T16:06:48.609Z,3.38
2023-06-28T16:09:15.659Z,3.35
2023-06-28T16:11:47.480Z,1.92
2023-06-28T16:14:14.608Z,1.88
2023-06-28T16:16:44.284Z,1.23
2023-06-28T16:19:12.369Z,3.47
2023-06-28T16:21:57.374Z,1.80
2023-06-28T16:24:27.175Z,3.25
2023-06-28T16:26:57.516Z,2.47
2023-06-28T16:29:29.753Z,3.10
2023-06-28T16:31:58.910Z,1.83
2023-06-28T16:34:25.611Z,1.92
2023-06-28T16:37:00.931Z,5.45
2023-06-28T16:39:30.642Z,2.05
2023-06-28T16:42:16.294Z,7.10
2023-06-28T16:44:54.484Z,2.08
2023-06-28T16:47:21.263Z,2.60
2023-06-28T16:49:55.439Z,3.10
2023-06-28T16:52:22.377Z,2.03
2023-06-28T16:55:02.521Z,3.25
2023-06-28T16:57:29.580Z,3.22
2023-06-28T17:00:09.775Z,4.30
2023-06-28T17:02:48.141Z,1.77
2023-06-28T17:05:18.428Z,5.13
2023-06-28T17:07:48.784Z,2.67
2023-06-28T17:10:29.936Z,3.13
2023-06-28T17:12:56.865Z,2.88
2023-06-28T17:15:26.304Z,2.17
2023-06-28T17:17:55.697Z,1.67
2023-06-28T17:20:22.526Z,1.88
2023-06-28T17:22:49.281Z,3.53
2023-06-28T17:25:21.254Z,1.52
2023-06-28T17:27:49.707Z,2.17
2023-06-28T17:30:23.225Z,1.92
2023-06-28T17:32:50.098Z,2.53
2023-06-28T17:35:17.224Z,3.67
2023-06-28T17:37:43.911Z,2.13
2023-06-28T17:40:13.318Z,1.58
2023-06-28T17:42:42.525Z,1.58
2023-06-28T17:45:10.583Z,2.33
2023-06-28T17:47:37.653Z,2.03
2023-06-28T17:50:08.125Z,4.82
2023-06-28T17:52:34.805Z,4.10
2023-06-28T17:55:07.759Z,2.78
2023-06-28T17:57:36.544Z,2.03
2023-06-28T18:00:07.268Z,1.27
2023-06-28T18:02:34.603Z,2.65
2023-06-28T18:05:01.597Z,1.30
2023-06-28T18:07:28.712Z,1.73
2023-06-28T18:10:01.930Z,1.42
2023-06-28T18:12:29.627Z,2.35
2023-06-28T18:14:59.293Z,1.30
2023-06-28T18:17:34.671Z,2.05
2023-06-28T18:20:01.531Z,2.45
2023-06-28T18:22:28.554Z,1.65
2023-06-28T18:25:01.094Z,1.25
2023-06-28T18:27:27.844Z,0.77
2023-06-28T18:30:10.838Z,1.33
2023-06-28T18:32:37.654Z,1.05
2023-06-28T18:35:10.711Z,0.90
2023-06-28T18:37:40.077Z,1.00
2023-06-28T18:40:10.549Z,1.30
2023-06-28T18:42:37.265Z,0.60
2023-06-28T18:45:13.753Z,1.45
2023-06-28T18:47:40.447Z,1.23
2023-06-28T18:50:07.681Z,1.23
2023-06-28T18:52:34.466Z,1.00
2023-06-28T18:55:01.542Z,1.80
2023-06-28T18:57:30.794Z,1.30
2023-06-28T18:59:57.520Z,2.15
2023-06-28T19:02:33.334Z,0.80
2023-06-28T19:05:03.405Z,1.13
2023-06-28T19:07:33.128Z,1.08
2023-06-28T19:10:10.886Z,2.15
2023-06-28T19:12:37.578Z,0.90
2023-06-28T19:15:08.452Z,2.47
2023-06-28T19:17:35.300Z,1.48
2023-06-28T19:20:02.312Z,1.02
2023-06-28T19:22:32.020Z,1.25
2023-06-28T19:24:58.743Z,2.42
2023-06-28T19:27:25.428Z,0.85
2023-06-28T19:29:56.266Z,1.75
2023-06-28T19:32:23.395Z,1.88
2023-06-28T19:34:59.049Z,1.67
2023-06-28T19:37:26.692Z,0.90
2023-06-28T19:39:55.947Z,1.27
2023-06-28T19:42:22.835Z,1.48
2023-06-28T19:44:56.093Z,0.93
2023-06-28T19:47:22.860Z,1.52
2023-06-28T19:49:55.444Z,1.95
2023-06-28T19:52:22.186Z,0.70
2023-06-28T19:54:55.379Z,1.45
2023-06-28T19:57:22.204Z,0.70
2023-06-28T19:59:55.066Z,1.30
2023-06-28T20:02:21.862Z,1.58
2023-06-28T20:04:57.870Z,3.08
2023-06-28T20:07:27.268Z,1.80
2023-06-28T20:10:02.334Z,1.38
2023-06-28T20:12:29.156Z,1.40
2023-06-28T20:15:09.806Z,1.92
2023-06-28T20:17:39.149Z,1.95
2023-06-28T20:20:14.184Z,1.40
2023-06-28T20:22:41.018Z,2.47
2023-06-28T20:25:29.559Z,1.27
2023-06-28T20:27:56.887Z,1.90
2023-06-28T20:30:23.952Z,1.25
2023-06-28T20:35:50.750Z,2.20
2023-06-28T20:38:26.987Z,1.88
2023-06-28T20:40:57.566Z,2.20
2023-06-28T20:43:24.930Z,1.88
2023-06-28T20:45:59.089Z,1.63
2023-06-28T20:48:27.949Z,1.35
2023-06-28T20:51:00.123Z,2.08
2023-06-28T20:53:27.208Z,1.90
2023-06-28T20:56:04.654Z,2.38
2023-06-28T20:58:32.070Z,1.73
2023-06-28T21:01:09.831Z,1.63
2023-06-28T21:03:36.681Z,1.98
2023-06-28T21:06:12.067Z,3.13
2023-06-28T21:08:46.862Z,2.97
2023-06-28T21:11:13.824Z,2.25
2023-06-28T21:13:43.720Z,3.47
2023-06-28T21:16:10.968Z,4.43
2023-06-28T21:18:37.715Z,2.83
2023-06-28T21:21:06.793Z,2.20
2023-06-28T21:23:38.616Z,2.97
2023-06-28T21:26:08.482Z,2.15
2023-06-28T21:28:35.488Z,2.00
2023-06-28T21:31:09.863Z,1.50
2023-06-28T21:33:39.416Z,2.10
2023-06-28T21:36:09.364Z,4.50
2023-06-28T21:38:36.139Z,2.65
2023-06-28T21:41:11.542Z,1.98
2023-06-28T21:43:41.305Z,2.22
2023-06-28T21:46:08.033Z,2.47
2023-06-28T21:48:40.834Z,3.28
2023-06-28T21:51:07.784Z,1.92
2023-06-28T21:53:37.634Z,3.08
2023-06-28T21:56:10.465Z,1.38
2023-06-28T21:58:37.477Z,1.53
2023-06-28T22:01:11.547Z,3.20
2023-06-28T22:03:41.413Z,6.07
2023-06-28T22:06:10.926Z,3.72
2023-06-28T22:08:38.547Z,3.80
2023-06-28T22:11:11.934Z,4.47
2023-06-28T22:13:42.455Z,5.43
2023-06-28T22:16:14.651Z,3.30
2023-06-28T22:18:43.628Z,2.92
2023-06-28T22:21:10.654Z,3.50
2023-06-28T22:23:37.945Z,4.55
2023-06-28T22:26:04.712Z,3.42
2023-06-28T22:28:31.715Z,2.03
2023-06-28T22:31:07.901Z,7.13
2023-06-28T22:33:34.623Z,3.90
2023-06-28T22:36:02.258Z,2.75
2023-06-28T22:38:32.000Z,3.80
2023-06-28T22:41:10.834Z,2.22
2023-06-28T22:43:37.516Z,3.92
2023-06-28T22:46:04.462Z,4.47
2023-06-28T22:48:32.903Z,4.78
2023-06-28T22:51:09.237Z,3.65
2023-06-28T22:53:36.328Z,2.05
2023-06-28T22:56:03.234Z,3.13
2023-06-28T22:58:30.275Z,3.17
2023-06-28T23:00:57.480Z,5.07
2023-06-28T23:03:25.329Z,4.53
2023-06-28T23:05:54.748Z,3.10
2023-06-28T23:08:21.668Z,4.32
2023-06-28T23:10:51.642Z,4.88
2023-06-28T23:13:23.730Z,3.42
2023-06-28T23:15:50.595Z,4.88
2023-06-28T23:18:20.800Z,5.18
2023-06-28T23:21:02.703Z,3.90
2023-06-28T23:23:32.926Z,4.32
2023-06-28T23:26:08.101Z,6.38
2023-06-28T23:28:34.878Z,3.38
2023-06-28T23:31:05.498Z,3.35
2023-06-28T23:33:32.226Z,5.20
2023-06-28T23:36:02.196Z,3.63
2023-06-28T23:38:29.019Z,3.80
2023-06-28T23:40:56.205Z,4.70
2023-06-28T23:43:22.917Z,6.22
2023-06-28T23:45:49.947Z,2.88
2023-06-28T23:48:25.958Z,3.40
2023-06-28T23:50:55.930Z,4.00
2023-06-28T23:53:24.614Z,6.97
2023-06-28T23:55:55.457Z,3.70
2023-06-28T23:58:22.640Z,4.95
